createdAt,value
2023-05-24T00:00:13.288Z,0.88
2023-05-24T00:02:42.897Z,1.00
2023-05-24T00:05:11.303Z,0.57
2023-05-24T00:07:39.341Z,0.77
2023-05-24T00:10:07.673Z,0.70
2023-05-24T00:12:36.763Z,0.63
2023-05-24T00:15:06.171Z,0.70
2023-05-24T00:17:34.763Z,0.70
2023-05-24T00:20:03.821Z,0.28
2023-05-24T00:22:32.822Z,0.63
2023-05-24T00:25:00.531Z,0.60
2023-05-24T00:27:28.244Z,0.73
2023-05-24T00:29:57.364Z,0.45
2023-05-24T00:32:25.138Z,0.40
2023-05-24T00:34:52.864Z,0.63
2023-05-24T00:37:20.577Z,0.47
2023-05-24T00:39:48.999Z,0.93
2023-05-24T00:42:17.480Z,0.70
2023-05-24T00:44:45.184Z,0.60
2023-05-24T00:47:14.241Z,0.73
2023-05-24T00:49:42.172Z,0.60
2023-05-24T00:52:10.152Z,0.75
2023-05-24T00:54:38.392Z,0.57
2023-05-24T00:57:06.348Z,0.32
2023-05-24T00:59:34.059Z,0.52
2023-05-24T01:02:01.947Z,0.85
2023-05-24T01:04:32.414Z,0.60
2023-05-24T01:07:05.683Z,0.50
2023-05-24T01:09:35.710Z,0.77
2023-05-24T01:12:12.860Z,0.93
2023-05-24T01:14:45.977Z,0.68
2023-05-24T01:17:16.047Z,0.55
2023-05-24T01:20:02.533Z,0.65
2023-05-24T01:22:42.211Z,0.73
2023-05-24T01:25:14.220Z,0.35
2023-05-24T01:27:44.216Z,0.60
2023-05-24T01:30:12.473Z,0.50
2023-05-24T01:32:40.342Z,0.50
2023-05-24T01:35:08.390Z,0.63
2023-05-24T01:37:36.749Z,1.10
2023-05-24T01:40:06.008Z,0.55
2023-05-24T01:42:37.568Z,0.63
2023-05-24T01:45:09.384Z,0.63
2023-05-24T01:47:41.645Z,0.50
2023-05-24T01:50:15.710Z,0.40
2023-05-24T01:52:45.053Z,0.50
2023-05-24T01:55:13.734Z,0.90
2023-05-24T01:57:42.285Z,0.73
2023-05-24T02:00:12.607Z,0.75
2023-05-24T02:02:43.381Z,0.73
2023-05-24T02:05:11.199Z,0.80
2023-05-24T02:07:38.956Z,0.45
2023-05-24T02:10:07.255Z,0.45
2023-05-24T02:12:35.004Z,0.88
2023-05-24T02:15:02.737Z,0.52
2023-05-24T02:17:33.030Z,0.68
2023-05-24T02:20:00.968Z,0.73
2023-05-24T02:22:29.165Z,0.32
2023-05-24T02:24:56.905Z,0.70
2023-05-24T02:27:24.663Z,0.60
2023-05-24T02:29:52.833Z,0.70
2023-05-24T02:32:20.563Z,0.25
2023-05-24T02:34:49.696Z,0.50
2023-05-24T02:37:17.410Z,0.57
2023-05-24T02:39:45.136Z,0.68
2023-05-24T02:42:12.851Z,0.38
2023-05-24T02:44:42.528Z,0.50
2023-05-24T02:47:10.265Z,0.40
2023-05-24T02:49:37.942Z,1.02
2023-05-24T02:52:07.429Z,0.57
2023-05-24T02:54:35.167Z,0.55
2023-05-24T02:57:06.536Z,0.60
2023-05-24T02:59:35.155Z,0.90
2023-05-24T03:02:02.881Z,1.02
2023-05-24T03:04:30.693Z,0.68
2023-05-24T03:06:58.450Z,0.40
2023-05-24T03:09:27.552Z,0.52
2023-05-24T03:11:55.520Z,0.40
2023-05-24T03:14:24.977Z,0.52
2023-05-24T03:16:52.820Z,0.43
2023-05-24T03:19:20.669Z,0.70
2023-05-24T03:21:49.541Z,0.50
2023-05-24T03:24:17.256Z,0.90
2023-05-24T03:26:46.507Z,0.60
2023-05-24T03:29:14.548Z,0.38
2023-05-24T03:31:43.699Z,0.65
2023-05-24T03:34:11.800Z,0.70
2023-05-24T03:36:42.021Z,0.80
2023-05-24T03:39:10.243Z,0.40
2023-05-24T03:41:55.701Z,0.52
2023-05-24T03:44:23.451Z,0.45
2023-05-24T03:46:51.218Z,0.28
2023-05-24T03:49:18.970Z,0.75
2023-05-24T03:51:47.416Z,0.40
2023-05-24T03:54:15.152Z,1.00
2023-05-24T03:56:43.084Z,0.65
2023-05-24T03:59:12.212Z,0.82
2023-05-24T04:01:40.060Z,0.82
2023-05-24T04:04:07.816Z,0.73
2023-05-24T04:06:36.805Z,0.30
2023-05-24T04:09:05.760Z,0.60
2023-05-24T04:11:33.539Z,0.38
2023-05-24T04:14:01.366Z,0.47
2023-05-24T04:16:34.286Z,0.57
2023-05-24T04:19:05.764Z,0.80
2023-05-24T04:21:33.509Z,0.60
2023-05-24T04:24:01.619Z,0.40
2023-05-24T04:26:29.815Z,0.75
2023-05-24T04:28:57.838Z,0.32
2023-05-24T04:31:26.275Z,0.82
2023-05-24T04:33:55.619Z,0.40
2023-05-24T04:36:23.855Z,0.60
2023-05-24T04:38:53.606Z,0.40
2023-05-24T04:41:22.425Z,0.57
2023-05-24T04:43:50.349Z,0.47
2023-05-24T04:46:18.128Z,0.65
2023-05-24T04:48:45.857Z,0.57
2023-05-24T04:51:14.942Z,0.75
2023-05-24T04:53:43.071Z,0.82
2023-05-24T04:56:14.880Z,0.95
2023-05-24T04:58:42.644Z,0.40
2023-05-24T05:01:10.387Z,0.73
2023-05-24T05:03:38.235Z,0.43
2023-05-24T05:06:06.060Z,0.50
2023-05-24T05:08:35.140Z,0.65
2023-05-24T05:11:02.846Z,0.47
2023-05-24T05:13:30.673Z,0.60
2023-05-24T05:15:58.393Z,0.55
2023-05-24T05:18:26.104Z,0.20
2023-05-24T05:20:53.806Z,0.73
2023-05-24T05:23:21.538Z,0.50
2023-05-24T05:25:51.109Z,0.77
2023-05-24T05:28:18.884Z,0.20
2023-05-24T05:30:46.952Z,0.80
2023-05-24T05:33:14.719Z,1.27
2023-05-24T05:35:42.484Z,1.45
2023-05-24T05:38:10.168Z,1.60
2023-05-24T05:40:37.876Z,1.70
2023-05-24T05:43:08.505Z,1.48
2023-05-24T05:45:36.503Z,2.13
2023-05-24T05:48:04.271Z,2.20
2023-05-24T05:50:32.025Z,1.75
2023-05-24T05:52:59.798Z,1.08
2023-05-24T05:55:27.483Z,0.65
2023-05-24T05:57:55.165Z,0.93
2023-05-24T06:00:24.848Z,0.80
2023-05-24T06:02:52.674Z,0.80
2023-05-24T06:05:20.468Z,0.57
2023-05-24T06:07:48.300Z,0.75
2023-05-24T06:10:16.067Z,0.65
2023-05-24T06:12:43.780Z,1.33
2023-05-24T06:15:12.149Z,0.95
2023-05-24T06:17:42.401Z,1.33
2023-05-24T06:20:12.173Z,1.52
2023-05-24T06:22:39.913Z,1.15
2023-05-24T06:25:07.929Z,0.52
2023-05-24T06:27:35.619Z,1.33
2023-05-24T06:30:03.692Z,1.27
2023-05-24T06:32:31.458Z,0.75
2023-05-24T06:35:00.637Z,0.63
2023-05-24T06:37:31.232Z,0.80
2023-05-24T06:39:58.948Z,0.63
2023-05-24T06:42:26.792Z,1.63
2023-05-24T06:44:54.483Z,1.23
2023-05-24T06:47:22.681Z,1.00
2023-05-24T06:49:50.611Z,0.60
2023-05-24T06:52:19.948Z,1.33
2023-05-24T06:54:47.750Z,1.48
2023-05-24T06:57:15.674Z,0.90
2023-05-24T06:59:43.458Z,1.27
2023-05-24T07:02:11.218Z,0.65
2023-05-24T07:04:41.093Z,1.23
2023-05-24T07:07:09.184Z,1.33
2023-05-24T07:09:38.254Z,1.42
2023-05-24T07:12:08.910Z,0.70
2023-05-24T07:14:36.878Z,0.85
2023-05-24T07:17:04.751Z,1.17
2023-05-24T07:19:34.076Z,0.95
2023-05-24T07:22:01.823Z,1.52
2023-05-24T07:24:29.569Z,1.65
2023-05-24T07:26:58.743Z,0.63
2023-05-24T07:29:26.944Z,1.80
2023-05-24T07:31:56.171Z,0.98
2023-05-24T07:34:27.376Z,1.75
2023-05-24T07:36:55.084Z,0.73
2023-05-24T07:39:23.287Z,0.60
2023-05-24T07:41:51.197Z,1.10
2023-05-24T07:44:20.408Z,1.08
2023-05-24T07:46:48.231Z,0.90
2023-05-24T07:49:16.170Z,1.23
2023-05-24T07:51:43.935Z,0.80
2023-05-24T07:54:11.677Z,1.23
2023-05-24T07:56:39.395Z,0.85
2023-05-24T07:59:08.237Z,0.63
2023-05-24T08:01:37.924Z,0.95
2023-05-24T08:04:05.741Z,0.95
2023-05-24T08:06:33.610Z,0.90
2023-05-24T08:09:01.699Z,1.05
2023-05-24T08:11:29.373Z,0.63
2023-05-24T08:13:57.098Z,1.02
2023-05-24T08:16:24.945Z,1.27
2023-05-24T08:18:55.302Z,0.80
2023-05-24T08:21:23.528Z,0.98
2023-05-24T08:23:51.258Z,1.20
2023-05-24T08:26:20.981Z,1.05
2023-05-24T08:28:48.884Z,0.57
2023-05-24T08:31:17.012Z,1.05
2023-05-24T08:33:45.636Z,0.80
2023-05-24T08:36:14.700Z,1.10
2023-05-24T08:38:42.394Z,0.95
2023-05-24T08:41:11.822Z,1.15
2023-05-24T08:43:39.596Z,0.93
2023-05-24T08:46:08.133Z,0.73
2023-05-24T08:48:41.185Z,0.38
2023-05-24T08:51:09.042Z,1.08
2023-05-24T08:53:38.867Z,1.20
2023-05-24T08:56:07.039Z,0.70
2023-05-24T08:58:34.811Z,0.80
2023-05-24T09:01:03.139Z,0.63
2023-05-24T09:03:31.256Z,0.75
2023-05-24T09:05:59.028Z,1.25
2023-05-24T09:08:27.654Z,0.95
2023-05-24T09:10:57.117Z,0.88
2023-05-24T09:13:25.663Z,0.80
2023-05-24T09:15:53.928Z,0.50
2023-05-24T09:18:21.976Z,1.30
2023-05-24T09:20:49.823Z,0.90
2023-05-24T09:23:18.302Z,0.70
2023-05-24T09:25:46.636Z,0.95
2023-05-24T09:28:16.379Z,0.95
2023-05-24T09:30:44.710Z,0.85
2023-05-24T09:33:13.603Z,0.73
2023-05-24T09:35:43.235Z,1.15
2023-05-24T09:38:18.191Z,1.00
2023-05-24T09:40:46.765Z,1.02
2023-05-24T09:43:15.843Z,1.20
2023-05-24T09:45:46.444Z,0.50
2023-05-24T09:48:15.298Z,0.22
2023-05-24T09:50:45.686Z,0.88
2023-05-24T09:53:13.589Z,1.00
2023-05-24T09:55:41.462Z,0.75
2023-05-24T09:58:09.993Z,0.88
2023-05-24T10:00:39.829Z,0.85
2023-05-24T10:03:08.334Z,0.40
2023-05-24T10:05:36.995Z,0.95
2023-05-24T10:08:06.073Z,1.10
2023-05-24T10:10:34.305Z,0.98
2023-05-24T10:13:02.752Z,1.13
2023-05-24T10:15:30.884Z,0.70
2023-05-24T10:18:00.529Z,0.90
2023-05-24T10:20:28.441Z,0.32
2023-05-24T10:23:00.334Z,1.02
2023-05-24T10:25:29.058Z,1.00
2023-05-24T10:27:58.575Z,0.65
2023-05-24T10:30:30.297Z,1.00
2023-05-24T10:32:58.665Z,1.15
2023-05-24T10:35:28.379Z,1.35
2023-05-24T10:37:57.401Z,0.30
2023-05-24T10:40:26.311Z,0.98
2023-05-24T10:42:55.123Z,0.68
2023-05-24T10:45:31.646Z,0.45
2023-05-24T10:48:02.095Z,0.73
2023-05-24T10:50:31.247Z,1.00
2023-05-24T10:53:11.900Z,1.25
2023-05-24T10:55:52.800Z,1.00
2023-05-24T10:58:20.517Z,1.42
2023-05-24T11:00:48.949Z,1.20
2023-05-24T11:03:23.749Z,0.90
2023-05-24T11:05:54.426Z,1.20
2023-05-24T11:08:24.016Z,1.25
2023-05-24T11:10:52.380Z,1.27
2023-05-24T11:13:20.783Z,1.00
2023-05-24T11:15:52.105Z,1.50
2023-05-24T11:18:23.237Z,1.25
2023-05-24T11:20:51.152Z,1.20
2023-05-24T11:23:20.452Z,1.15
2023-05-24T11:25:48.700Z,0.90
2023-05-24T11:28:16.559Z,1.42
2023-05-24T11:30:44.877Z,0.98
2023-05-24T11:33:16.521Z,1.23
2023-05-24T11:35:44.311Z,1.25
2023-05-24T11:38:13.536Z,1.00
2023-05-24T11:40:44.954Z,0.98
2023-05-24T11:43:16.673Z,0.95
2023-05-24T11:45:45.307Z,1.35
2023-05-24T11:48:13.492Z,1.10
2023-05-24T11:50:49.231Z,1.30
2023-05-24T11:53:20.191Z,1.20
2023-05-24T11:55:49.773Z,1.20
2023-05-24T11:58:20.704Z,1.15
2023-05-24T12:00:48.737Z,1.27
2023-05-24T12:03:17.453Z,1.40
2023-05-24T12:05:45.669Z,1.30
2023-05-24T12:08:15.464Z,1.40
2023-05-24T12:10:43.945Z,1.25
2023-05-24T12:13:21.542Z,1.10
2023-05-24T12:15:52.686Z,0.98
2023-05-24T12:18:23.014Z,1.55
2023-05-24T12:20:51.139Z,1.13
2023-05-24T12:23:20.115Z,1.50
2023-05-24T12:25:48.046Z,0.90
2023-05-24T12:28:15.851Z,1.25
2023-05-24T12:30:45.148Z,1.02
2023-05-24T12:33:12.969Z,0.80
2023-05-24T12:35:42.630Z,1.00
2023-05-24T12:38:11.176Z,1.63
2023-05-24T12:40:39.107Z,1.20
2023-05-24T12:43:06.849Z,0.80
2023-05-24T12:45:34.925Z,1.05
2023-05-24T12:48:05.106Z,1.20
2023-05-24T12:50:34.770Z,1.30
2023-05-24T12:53:02.537Z,1.10
2023-05-24T12:55:30.586Z,0.90
2023-05-24T12:57:58.696Z,0.98
2023-05-24T13:00:27.808Z,0.77
2023-05-24T13:02:58.568Z,0.98
2023-05-24T13:05:28.743Z,0.60
2023-05-24T13:07:57.398Z,0.80
2023-05-24T13:10:25.180Z,0.70
2023-05-24T13:12:52.936Z,0.98
2023-05-24T13:15:23.240Z,1.33
2023-05-24T13:17:51.214Z,0.70
2023-05-24T13:20:22.099Z,0.95
2023-05-24T13:22:51.338Z,0.73
2023-05-24T13:25:22.428Z,0.52
2023-05-24T13:27:50.152Z,0.90
2023-05-24T13:30:18.842Z,1.10
2023-05-24T13:32:46.677Z,0.68
2023-05-24T13:35:14.502Z,0.63
2023-05-24T13:37:42.717Z,0.90
2023-05-24T13:40:12.358Z,1.25
2023-05-24T13:42:40.340Z,0.73
2023-05-24T13:45:08.770Z,0.98
2023-05-24T13:47:40.317Z,1.38
2023-05-24T13:50:09.290Z,1.10
2023-05-24T13:52:36.973Z,0.80
2023-05-24T13:55:05.701Z,1.10
2023-05-24T13:57:50.359Z,0.77
2023-05-24T14:00:19.214Z,0.82
2023-05-24T14:02:47.619Z,0.95
2023-05-24T14:05:26.585Z,0.68
2023-05-24T14:07:55.168Z,0.60
2023-05-24T14:10:22.996Z,0.60
2023-05-24T14:13:08.339Z,1.05
2023-05-24T14:15:40.255Z,0.40
2023-05-24T14:18:08.854Z,0.35
2023-05-24T14:20:38.119Z,0.57
2023-05-24T14:23:06.376Z,0.73
2023-05-24T14:25:34.426Z,0.10
2023-05-24T14:28:04.370Z,0.55
2023-05-24T14:30:32.617Z,0.43
2023-05-24T14:33:00.728Z,0.20
2023-05-24T14:35:28.796Z,0.65
2023-05-24T14:37:56.465Z,0.75
2023-05-24T14:40:24.205Z,0.93
2023-05-24T14:42:52.052Z,0.70
2023-05-24T14:45:21.604Z,0.40
2023-05-24T14:47:49.511Z,0.47
2023-05-24T14:50:17.280Z,0.32
2023-05-24T14:52:45.023Z,0.50
2023-05-24T14:55:13.686Z,0.47
2023-05-24T14:57:41.876Z,0.32
2023-05-24T15:00:10.528Z,0.50
2023-05-24T15:02:39.773Z,0.38
2023-05-24T15:05:08.417Z,0.77
2023-05-24T15:07:36.528Z,0.30
2023-05-24T15:10:04.492Z,0.82
2023-05-24T15:12:32.200Z,1.02
2023-05-24T15:14:59.923Z,0.73
2023-05-24T15:17:27.820Z,0.80
2023-05-24T15:19:59.664Z,0.70
2023-05-24T15:22:27.636Z,0.57
2023-05-24T15:24:55.373Z,0.32
2023-05-24T15:27:23.109Z,0.50
2023-05-24T15:29:53.936Z,0.77
2023-05-24T15:32:21.696Z,0.85
2023-05-24T15:34:50.542Z,0.50
2023-05-24T15:37:21.435Z,0.30
2023-05-24T15:39:49.232Z,0.65
2023-05-24T15:42:16.937Z,0.50
2023-05-24T15:44:44.673Z,0.43
2023-05-24T15:47:12.418Z,0.40
2023-05-24T15:49:40.316Z,0.95
2023-05-24T15:52:08.420Z,0.45
2023-05-24T15:54:37.777Z,0.63
2023-05-24T15:57:05.704Z,0.90
2023-05-24T15:59:35.289Z,0.77
2023-05-24T16:02:03.056Z,0.80
2023-05-24T16:04:30.806Z,0.70
2023-05-24T16:06:58.590Z,1.05
2023-05-24T16:09:26.296Z,1.05
2023-05-24T16:11:55.617Z,1.00
2023-05-24T16:14:23.441Z,0.90
2023-05-24T16:16:51.260Z,1.23
2023-05-24T16:19:19.520Z,1.10
2023-05-24T16:21:47.285Z,1.17
2023-05-24T16:24:15.048Z,1.65
2023-05-24T16:26:42.797Z,1.50
2023-05-24T16:29:11.869Z,0.88
2023-05-24T16:31:39.647Z,1.20
2023-05-24T16:34:07.398Z,1.50
2023-05-24T16:36:35.166Z,1.02
2023-05-24T16:39:02.938Z,1.17
2023-05-24T16:41:37.317Z,1.15
2023-05-24T16:44:05.286Z,1.13
2023-05-24T16:46:34.691Z,1.17
2023-05-24T16:49:02.457Z,1.10
2023-05-24T16:51:30.279Z,1.30
2023-05-24T16:53:57.988Z,1.00
2023-05-24T16:56:25.951Z,1.25
2023-05-24T16:58:53.711Z,1.20
2023-05-24T17:01:21.417Z,1.48
2023-05-24T17:03:50.576Z,1.20
2023-05-24T17:06:18.384Z,1.40
2023-05-24T17:08:46.110Z,1.10
2023-05-24T17:11:15.649Z,0.95
2023-05-24T17:13:43.410Z,1.20
2023-05-24T17:16:11.780Z,1.00
2023-05-24T17:18:39.616Z,0.88
2023-05-24T17:21:08.689Z,1.35
2023-05-24T17:23:37.665Z,1.40
2023-05-24T17:26:05.760Z,1.35
2023-05-24T17:28:35.063Z,1.30
2023-05-24T17:31:03.014Z,1.60
2023-05-24T17:33:31.663Z,1.38
2023-05-24T17:36:02.644Z,1.35
2023-05-24T17:38:33.055Z,1.50
2023-05-24T17:41:01.061Z,1.40
2023-05-24T17:43:32.140Z,1.58
2023-05-24T17:46:04.069Z,1.33
2023-05-24T17:48:32.556Z,1.40
2023-05-24T17:51:00.853Z,1.05
2023-05-24T17:53:31.882Z,0.88
2023-05-24T17:56:01.734Z,1.00
2023-05-24T17:58:30.736Z,1.10
2023-05-24T18:00:58.541Z,0.80
2023-05-24T18:03:26.299Z,1.10
2023-05-24T18:05:54.031Z,0.90
2023-05-24T18:08:21.708Z,1.17
2023-05-24T18:10:49.555Z,1.20
2023-05-24T18:13:18.602Z,1.40
2023-05-24T18:15:46.368Z,0.90
2023-05-24T18:18:14.140Z,1.27
2023-05-24T18:20:42.023Z,1.17
2023-05-24T18:23:09.869Z,0.60
2023-05-24T18:25:37.625Z,0.65
2023-05-24T18:28:05.361Z,1.05
2023-05-24T18:30:34.444Z,0.73
2023-05-24T18:33:07.837Z,0.40
2023-05-24T18:35:36.180Z,1.02
2023-05-24T18:38:03.893Z,0.70
2023-05-24T18:40:31.628Z,0.90
2023-05-24T18:42:59.362Z,0.45
2023-05-24T18:45:27.142Z,0.47
2023-05-24T18:47:56.266Z,0.73
2023-05-24T18:50:24.172Z,0.52
2023-05-24T18:52:52.077Z,0.68
2023-05-24T18:55:19.770Z,0.60
2023-05-24T18:57:47.794Z,0.88
2023-05-24T19:00:17.828Z,0.73
2023-05-24T19:02:45.777Z,0.43
2023-05-24T19:05:15.517Z,0.60
2023-05-24T19:07:43.396Z,0.35
2023-05-24T19:10:11.495Z,0.60
2023-05-24T19:12:39.262Z,0.55
2023-05-24T19:15:07.667Z,0.45
2023-05-24T19:17:35.602Z,0.57
2023-05-24T19:20:03.682Z,0.50
2023-05-24T19:22:32.857Z,0.20
2023-05-24T19:25:00.987Z,0.85
2023-05-24T19:27:29.024Z,1.15
2023-05-24T19:29:59.067Z,0.65
2023-05-24T19:32:26.965Z,0.40
2023-05-24T19:34:54.743Z,0.70
2023-05-24T19:37:22.535Z,0.50
2023-05-24T19:39:52.450Z,0.68
2023-05-24T19:42:20.173Z,0.40
2023-05-24T19:44:48.041Z,0.57
2023-05-24T19:47:15.875Z,0.32
2023-05-24T19:49:43.753Z,0.50
2023-05-24T19:52:11.616Z,0.95
2023-05-24T19:54:41.228Z,0.43
2023-05-24T19:57:10.389Z,0.30
2023-05-24T19:59:38.064Z,0.88
2023-05-24T20:02:07.468Z,0.20
2023-05-24T20:04:35.132Z,0.20
2023-05-24T20:07:02.881Z,0.50
2023-05-24T20:09:30.595Z,0.60
2023-05-24T20:11:58.305Z,0.30
2023-05-24T20:14:28.089Z,0.38
2023-05-24T20:16:55.802Z,0.40
2023-05-24T20:19:24.038Z,0.35
2023-05-24T20:21:51.729Z,0.32
2023-05-24T20:24:19.510Z,0.52
2023-05-24T20:26:47.364Z,0.50
2023-05-24T20:29:15.309Z,0.70
2023-05-24T20:31:44.616Z,0.68
2023-05-24T20:34:12.333Z,0.73
2023-05-24T20:36:42.008Z,0.93
2023-05-24T20:39:12.220Z,0.70
2023-05-24T20:41:40.210Z,0.60
2023-05-24T20:44:07.959Z,0.70
2023-05-24T20:46:36.624Z,0.47
2023-05-24T20:49:05.850Z,0.40
2023-05-24T20:51:33.525Z,0.77
2023-05-24T20:54:01.311Z,0.57
2023-05-24T20:56:29.049Z,0.68
2023-05-24T20:58:59.811Z,0.30
2023-05-24T21:01:27.822Z,0.50
2023-05-24T21:03:56.569Z,0.20
2023-05-24T21:06:25.872Z,0.45
2023-05-24T21:08:53.565Z,0.55
2023-05-24T21:11:21.674Z,0.20
2023-05-24T21:13:49.381Z,0.40
2023-05-24T21:16:17.105Z,0.40
2023-05-24T21:18:44.819Z,0.95
2023-05-24T21:21:12.526Z,0.38
2023-05-24T21:23:41.591Z,0.77
2023-05-24T21:26:09.321Z,0.40
2023-05-24T21:28:37.038Z,0.40
2023-05-24T21:31:04.837Z,0.63
2023-05-24T21:33:32.573Z,0.70
2023-05-24T21:36:00.387Z,0.52
2023-05-24T21:38:28.045Z,0.28
2023-05-24T21:40:57.155Z,0.60
2023-05-24T21:43:25.107Z,0.75
2023-05-24T21:45:52.867Z,0.32
2023-05-24T21:48:20.543Z,0.80
2023-05-24T21:50:48.246Z,0.25
2023-05-24T21:53:15.937Z,0.40
2023-05-24T21:55:43.896Z,0.47
2023-05-24T21:58:13.118Z,0.50
2023-05-24T22:00:40.944Z,0.30
2023-05-24T22:03:08.881Z,0.55
2023-05-24T22:05:36.693Z,0.40
2023-05-24T22:08:04.389Z,0.32
2023-05-24T22:10:32.180Z,0.52
2023-05-24T22:12:59.847Z,0.30
2023-05-24T22:15:29.047Z,0.55
2023-05-24T22:17:58.515Z,0.47
2023-05-24T22:20:27.622Z,0.52
2023-05-24T22:22:55.436Z,0.40
2023-05-24T22:25:23.195Z,0.40
2023-05-24T22:27:51.261Z,0.40
2023-05-24T22:30:19.487Z,0.55
2023-05-24T22:32:48.730Z,0.40
2023-05-24T22:35:16.671Z,0.38
2023-05-24T22:37:44.446Z,0.40
2023-05-24T22:40:12.616Z,0.40
2023-05-24T22:42:40.414Z,0.55
2023-05-24T22:45:09.030Z,0.75
2023-05-24T22:47:39.670Z,0.47
2023-05-24T22:50:09.904Z,0.35
2023-05-24T22:52:42.786Z,0.47
2023-05-24T22:55:10.821Z,0.73
2023-05-24T22:57:38.428Z,0.30
2023-05-24T23:00:07.975Z,0.30
2023-05-24T23:02:36.277Z,0.25
2023-05-24T23:05:04.189Z,0.45
2023-05-24T23:07:33.236Z,0.30
2023-05-24T23:10:01.327Z,0.47
2023-05-24T23:12:29.178Z,0.80
2023-05-24T23:14:58.290Z,0.70
2023-05-24T23:17:26.368Z,0.57
2023-05-24T23:19:54.155Z,0.55
2023-05-24T23:22:23.622Z,0.73
2023-05-24T23:24:52.952Z,0.50
2023-05-24T23:27:21.316Z,0.32
2023-05-24T23:29:48.961Z,0.68
2023-05-24T23:32:16.635Z,0.40
2023-05-24T23:34:44.287Z,0.30
2023-05-24T23:37:11.918Z,0.40
2023-05-24T23:39:39.582Z,0.50
2023-05-24T23:42:08.655Z,0.60
2023-05-24T23:44:36.379Z,0.40
2023-05-24T23:47:04.292Z,1.15
2023-05-24T23:49:32.003Z,0.50
2023-05-24T23:51:59.754Z,0.73
2023-05-24T23:54:27.422Z,0.45
2023-05-24T23:56:55.043Z,0.47
2023-05-24T23:59:24.051Z,0.80
